Time;durP1;ratioP1;P1;durP2;ratioP2;P2;SDS_P1;SDS_P2;PMS_P1;PMS_P2;Temp;Humidity;BMP_temperature;BMP_pressure;BME280_temperature;BME280_humidity;BME280_pressure;Samples;Min_cycle;Max_cycle;Signal;HPM_P1;HPM_P2
2021/06/21 00:00:42;;;;;;;8.38;1.75;;;;;;;;;;5002304;28;20054;-59
2021/06/21 00:03:07;;;;;;;4.90;0.93;;;;;;;;;;5001762;28;20034;-59
2021/06/21 00:05:33;;;;;;;7.85;1.92;;;;;;;;;;5001967;28;20537;-60
2021/06/21 00:07:59;;;;;;;6.22;1.05;;;;;;;;;;4997934;28;20079;-59
2021/06/21 00:10:25;;;;;;;9.40;1.40;;;;;;;;;;5001575;28;20058;-59
2021/06/21 00:12:50;;;;;;;7.63;1.48;;;;;;;;;;4995911;28;20065;-60
2021/06/21 00:15:20;;;;;;;7.65;2.10;;;;;;;;;;5002582;28;20026;-59
2021/06/21 00:17:46;;;;;;;7.00;1.45;;;;;;;;;;5000909;28;20026;-59
2021/06/21 00:20:13;;;;;;;7.90;1.77;;;;;;;;;;4995673;28;20101;-59
2021/06/21 00:22:38;;;;;;;7.47;1.35;;;;;;;;;;5003379;28;20026;-59
2021/06/21 00:25:05;;;;;;;8.25;1.70;;;;;;;;;;4996278;28;20030;-59
2021/06/21 00:27:30;;;;;;;4.85;1.23;;;;;;;;;;5004249;28;20021;-59
2021/06/21 00:29:56;;;;;;;6.47;1.75;;;;;;;;;;4993703;28;20088;-58
2021/06/21 00:32:21;;;;;;;6.50;1.50;;;;;;;;;;5002149;28;20030;-58
2021/06/21 00:34:47;;;;;;;9.23;2.05;;;;;;;;;;5002813;28;20030;-59
2021/06/21 00:37:12;;;;;;;5.70;1.45;;;;;;;;;;4996933;28;20030;-59
2021/06/21 00:39:38;;;;;;;7.30;1.40;;;;;;;;;;4996399;28;20108;-59
2021/06/21 00:42:04;;;;;;;7.20;1.40;;;;;;;;;;5002104;28;20030;-59
2021/06/21 00:44:29;;;;;;;8.13;1.60;;;;;;;;;;4999722;28;20476;-59
2021/06/21 00:46:55;;;;;;;5.95;1.20;;;;;;;;;;4999333;28;20045;-59
2021/06/21 00:49:20;;;;;;;13.20;1.98;;;;;;;;;;4998036;28;20026;-59
2021/06/21 00:51:46;;;;;;;8.68;1.65;;;;;;;;;;4998394;28;20073;-59
2021/06/21 00:54:11;;;;;;;4.10;1.50;;;;;;;;;;5000614;28;20516;-59
2021/06/21 00:56:37;;;;;;;7.93;1.90;;;;;;;;;;5003745;28;20053;-59
2021/06/21 00:59:03;;;;;;;8.35;1.98;;;;;;;;;;5000578;28;20030;-59
2021/06/21 01:01:29;;;;;;;7.13;1.30;;;;;;;;;;5001567;28;20026;-59
2021/06/21 01:03:55;;;;;;;6.35;1.80;;;;;;;;;;4999861;28;20056;-59
2021/06/21 01:06:21;;;;;;;8.45;2.10;;;;;;;;;;5003441;28;20630;-59
2021/06/21 01:08:48;;;;;;;10.73;1.52;;;;;;;;;;4998061;28;20113;-59
2021/06/21 01:11:15;;;;;;;6.72;1.83;;;;;;;;;;4995583;28;20034;-61
2021/06/21 01:14:11;;;;;;;7.25;1.60;;;;;;;;;;5001673;28;20025;-59
2021/06/21 01:16:54;;;;;;;9.35;2.10;;;;;;;;;;5002025;28;20030;-59
2021/06/21 01:19:30;;;;;;;7.03;1.52;;;;;;;;;;5000000;28;20034;-59
2021/06/21 01:22:43;;;;;;;9.57;1.65;;;;;;;;;;4995593;28;20473;-59
2021/06/21 01:25:20;;;;;;;7.40;1.35;;;;;;;;;;4984184;28;20046;-59
2021/06/21 01:28:01;;;;;;;7.15;1.63;;;;;;;;;;4993982;28;20051;-59
2021/06/21 01:30:53;;;;;;;6.25;1.55;;;;;;;;;;5000696;28;20101;-59
2021/06/21 01:33:21;;;;;;;6.78;1.85;;;;;;;;;;4998416;28;20113;-59
2021/06/21 01:35:53;;;;;;;7.13;1.90;;;;;;;;;;5000707;28;20420;-60
2021/06/21 01:38:24;;;;;;;8.43;1.85;;;;;;;;;;5010287;28;20061;-59
2021/06/21 01:40:53;;;;;;;7.82;1.50;;;;;;;;;;4999038;28;20029;-59
2021/06/21 01:43:24;;;;;;;6.53;1.50;;;;;;;;;;5000911;28;20022;-60
2021/06/21 01:45:49;;;;;;;8.25;2.10;;;;;;;;;;5001592;28;20033;-59
2021/06/21 01:48:16;;;;;;;5.97;1.75;;;;;;;;;;4995254;28;20081;-59
2021/06/21 01:50:42;;;;;;;9.55;1.67;;;;;;;;;;5000431;28;20030;-59
2021/06/21 01:53:12;;;;;;;6.28;1.50;;;;;;;;;;5002857;28;20108;-59
2021/06/21 01:55:39;;;;;;;;;;;;;;;;;;5005363;28;20505;-60
2021/06/21 01:58:06;;;;;;;6.30;1.60;;;;;;;;;;5001269;28;19952;-60
2021/06/21 02:00:32;;;;;;;9.23;1.65;;;;;;;;;;4999433;28;20045;-60
2021/06/21 02:03:00;;;;;;;6.38;1.75;;;;;;;;;;4997452;28;20378;-59
2021/06/21 02:05:28;;;;;;;11.30;2.08;;;;;;;;;;4999558;28;20172;-61
2021/06/21 02:07:55;;;;;;;7.45;2.45;;;;;;;;;;5001180;28;20050;-60
2021/06/21 02:10:21;;;;;;;6.57;1.58;;;;;;;;;;4995422;28;20037;-59
2021/06/21 02:12:48;;;;;;;3.47;1.15;;;;;;;;;;5008346;28;20026;-60
2021/06/21 02:15:15;;;;;;;5.78;1.80;;;;;;;;;;5001652;28;20403;-60
2021/06/21 02:17:41;;;;;;;9.90;1.80;;;;;;;;;;4998490;28;20038;-60
2021/06/21 02:20:08;;;;;;;8.05;1.70;;;;;;;;;;5000005;28;20516;-60
2021/06/21 02:22:35;;;;;;;8.43;1.75;;;;;;;;;;5002229;28;20065;-60
2021/06/21 02:25:05;;;;;;;10.48;1.85;;;;;;;;;;5019587;28;20492;-60
2021/06/21 02:27:32;;;;;;;7.10;1.80;;;;;;;;;;5004656;28;20447;-60
2021/06/21 02:29:59;;;;;;;6.05;1.58;;;;;;;;;;5002468;28;20550;-60
2021/06/21 02:32:25;;;;;;;9.68;1.77;;;;;;;;;;5007641;28;20041;-60
2021/06/21 02:34:52;;;;;;;10.95;1.70;;;;;;;;;;5007640;28;20025;-60
2021/06/21 02:37:18;;;;;;;6.38;1.58;;;;;;;;;;5003372;28;20092;-60
2021/06/21 02:39:44;;;;;;;6.38;1.77;;;;;;;;;;4996244;28;20042;-60
2021/06/21 02:42:10;;;;;;;7.75;1.92;;;;;;;;;;5007103;28;20033;-59
2021/06/21 02:44:35;;;;;;;9.40;1.60;;;;;;;;;;5000059;28;20113;-60
2021/06/21 02:47:02;;;;;;;8.45;1.90;;;;;;;;;;5001643;28;20087;-60
2021/06/21 02:49:27;;;;;;;7.22;1.80;;;;;;;;;;5003513;28;20037;-59
2021/06/21 02:52:00;;;;;;;7.05;1.85;;;;;;;;;;4995683;28;20026;-60
2021/06/21 02:55:06;;;;;;;6.75;1.88;;;;;;;;;;5006092;28;20032;-60
2021/06/21 02:57:39;;;;;;;6.00;1.48;;;;;;;;;;5005762;28;20252;-59
2021/06/21 03:00:05;;;;;;;8.02;1.85;;;;;;;;;;4997605;28;20026;-60
2021/06/21 03:02:31;;;;;;;3.97;1.35;;;;;;;;;;5002022;28;20114;-59
2021/06/21 03:04:59;;;;;;;3.70;1.73;;;;;;;;;;5001987;28;20112;-60
2021/06/21 03:07:25;;;;;;;5.65;1.80;;;;;;;;;;4999482;28;20038;-60
2021/06/21 03:09:51;;;;;;;6.25;1.40;;;;;;;;;;4998472;28;20452;-60
2021/06/21 03:12:21;;;;;;;5.45;1.80;;;;;;;;;;5001053;28;20503;-60
2021/06/21 03:14:49;;;;;;;10.90;2.15;;;;;;;;;;5004523;28;20073;-59
2021/06/21 03:17:15;;;;;;;7.30;2.00;;;;;;;;;;5004810;28;20400;-60
2021/06/21 03:19:43;;;;;;;6.18;1.67;;;;;;;;;;5002995;28;20030;-60
2021/06/21 03:22:09;;;;;;;7.05;2.00;;;;;;;;;;5000196;28;20461;-60
2021/06/21 03:24:34;;;;;;;7.55;1.77;;;;;;;;;;5005935;28;20065;-60
2021/06/21 03:26:59;;;;;;;7.15;1.85;;;;;;;;;;5001500;28;20115;-59
2021/06/21 03:29:26;;;;;;;8.48;1.75;;;;;;;;;;5000437;28;20065;-61
2021/06/21 03:31:53;;;;;;;7.43;2.40;;;;;;;;;;5000515;28;20460;-59
2021/06/21 03:34:23;;;;;;;5.03;1.90;;;;;;;;;;4998196;28;20404;-59
2021/06/21 03:36:48;;;;;;;;;;;;;;;;;;5006160;28;20025;-60
2021/06/21 03:39:15;;;;;;;5.30;1.65;;;;;;;;;;5004722;28;20284;-60
2021/06/21 03:41:41;;;;;;;8.63;2.03;;;;;;;;;;5000833;28;20437;-60
2021/06/21 03:44:07;;;;;;;11.15;1.70;;;;;;;;;;5004474;28;20041;-60
2021/06/21 03:46:33;;;;;;;7.63;2.60;;;;;;;;;;4997229;28;20444;-60
2021/06/21 03:48:59;;;;;;;9.82;2.70;;;;;;;;;;5003776;28;20513;-60
2021/06/21 03:51:25;;;;;;;7.22;2.42;;;;;;;;;;5000944;28;20113;-60
2021/06/21 03:53:51;;;;;;;8.30;2.15;;;;;;;;;;4996848;28;20026;-59
2021/06/21 03:56:16;;;;;;;6.63;1.60;;;;;;;;;;5003187;28;20030;-59
2021/06/21 03:58:42;;;;;;;7.30;2.50;;;;;;;;;;4999770;28;20022;-59
2021/06/21 04:01:07;;;;;;;7.18;1.90;;;;;;;;;;4998488;28;20055;-60
2021/06/21 04:03:33;;;;;;;4.20;2.15;;;;;;;;;;5000442;28;20021;-59
2021/06/21 04:05:58;;;;;;;6.32;2.00;;;;;;;;;;5004716;28;20388;-60
2021/06/21 04:08:24;;;;;;;5.80;1.80;;;;;;;;;;4999026;28;20186;-60
2021/06/21 04:10:50;;;;;;;6.15;1.85;;;;;;;;;;4999680;28;20411;-59
2021/06/21 04:13:17;;;;;;;8.00;2.45;;;;;;;;;;5003742;28;20082;-60
2021/06/21 04:15:43;;;;;;;7.18;1.83;;;;;;;;;;4998035;28;20030;-58
2021/06/21 04:18:11;;;;;;;5.55;1.60;;;;;;;;;;5003828;28;20105;-59
2021/06/21 04:20:38;;;;;;;6.03;1.80;;;;;;;;;;5002472;28;20061;-60
2021/06/21 04:23:05;;;;;;;5.68;2.13;;;;;;;;;;5003633;28;20096;-60
2021/06/21 04:25:31;;;;;;;6.13;2.10;;;;;;;;;;5003940;28;20411;-59
2021/06/21 04:27:56;;;;;;;5.72;1.58;;;;;;;;;;4997768;28;20204;-59
2021/06/21 04:30:24;;;;;;;9.65;2.05;;;;;;;;;;5003818;28;20034;-59
2021/06/21 04:32:49;;;;;;;8.00;2.60;;;;;;;;;;4996551;28;20042;-60
2021/06/21 04:35:17;;;;;;;10.68;3.13;;;;;;;;;;4999425;28;20029;-60
2021/06/21 04:37:42;;;;;;;5.85;2.38;;;;;;;;;;4997992;28;20076;-58
2021/06/21 04:40:10;;;;;;;8.35;2.10;;;;;;;;;;5002622;28;20034;-58
2021/06/21 04:42:36;;;;;;;4.97;2.28;;;;;;;;;;5003420;28;20080;-58
2021/06/21 04:45:03;;;;;;;5.07;1.70;;;;;;;;;;5002055;28;20097;-58
2021/06/21 04:47:28;;;;;;;5.03;1.63;;;;;;;;;;5004452;28;20097;-57
2021/06/21 04:49:56;;;;;;;7.15;2.20;;;;;;;;;;5016625;28;20057;-58
2021/06/21 04:52:24;;;;;;;4.88;2.08;;;;;;;;;;4997187;28;20083;-57
2021/06/21 04:54:50;;;;;;;5.75;1.73;;;;;;;;;;4999748;28;20488;-57
2021/06/21 04:57:17;;;;;;;5.57;1.73;;;;;;;;;;4996154;28;20085;-56
2021/06/21 04:59:43;;;;;;;7.38;1.77;;;;;;;;;;5002092;28;20115;-57
2021/06/21 05:02:08;;;;;;;11.15;2.05;;;;;;;;;;5001589;28;20659;-57
2021/06/21 05:04:34;;;;;;;5.80;2.03;;;;;;;;;;5000585;28;20061;-57
2021/06/21 05:06:59;;;;;;;6.97;2.25;;;;;;;;;;5005319;28;20040;-60
2021/06/21 05:09:25;;;;;;;7.85;1.92;;;;;;;;;;5001149;28;20062;-60
2021/06/21 05:11:51;;;;;;;7.55;2.15;;;;;;;;;;5000231;28;20045;-61
2021/06/21 05:14:16;;;;;;;12.25;2.85;;;;;;;;;;4995962;28;20107;-60
2021/06/21 05:16:41;;;;;;;6.78;2.28;;;;;;;;;;5004420;28;20037;-60
2021/06/21 05:19:07;;;;;;;8.43;2.00;;;;;;;;;;4997263;28;20037;-60
2021/06/21 05:21:33;;;;;;;5.65;1.65;;;;;;;;;;5004259;28;20105;-60
2021/06/21 05:23:59;;;;;;;6.32;2.13;;;;;;;;;;4998529;28;20038;-61
2021/06/21 05:26:24;;;;;;;5.35;2.20;;;;;;;;;;4995627;28;20046;-60
2021/06/21 05:28:50;;;;;;;5.78;1.92;;;;;;;;;;5001635;28;20042;-60
2021/06/21 05:31:15;;;;;;;6.88;1.60;;;;;;;;;;5002162;28;20139;-60
2021/06/21 05:33:43;;;;;;;6.90;1.63;;;;;;;;;;5000668;28;20392;-60
2021/06/21 05:36:09;;;;;;;4.05;1.33;;;;;;;;;;5000121;28;20030;-61
2021/06/21 05:38:34;;;;;;;6.47;2.13;;;;;;;;;;5002471;28;20080;-61
2021/06/21 05:41:00;;;;;;;6.03;2.30;;;;;;;;;;4993126;28;20053;-61
2021/06/21 05:43:25;;;;;;;6.38;1.58;;;;;;;;;;4996678;28;20458;-61
2021/06/21 05:45:50;;;;;;;6.13;1.85;;;;;;;;;;5000798;28;20049;-60
2021/06/21 05:48:16;;;;;;;2.83;1.45;;;;;;;;;;5007454;28;20448;-61
2021/06/21 05:50:42;;;;;;;7.95;1.52;;;;;;;;;;5006354;28;20048;-61
2021/06/21 05:53:08;;;;;;;8.52;1.80;;;;;;;;;;5000072;28;20026;-61
2021/06/21 05:55:33;;;;;;;8.15;1.60;;;;;;;;;;5007429;28;20488;-60
2021/06/21 05:58:00;;;;;;;4.65;1.52;;;;;;;;;;5001996;28;20036;-61
2021/06/21 06:00:26;;;;;;;6.07;1.63;;;;;;;;;;5003052;28;20030;-61
2021/06/21 06:02:51;;;;;;;4.15;1.50;;;;;;;;;;5005564;28;20036;-62
2021/06/21 06:05:17;;;;;;;4.25;1.40;;;;;;;;;;5006969;28;20397;-61
2021/06/21 06:07:45;;;;;;;5.05;1.25;;;;;;;;;;5004407;28;20101;-60
2021/06/21 06:10:11;;;;;;;3.83;1.20;;;;;;;;;;5004884;28;20038;-60
2021/06/21 06:12:36;;;;;;;5.70;1.00;;;;;;;;;;5003502;28;20029;-61
2021/06/21 06:15:03;;;;;;;5.18;1.40;;;;;;;;;;4999561;28;20026;-61
2021/06/21 06:17:28;;;;;;;4.07;1.13;;;;;;;;;;5000246;28;20047;-61
2021/06/21 06:19:54;;;;;;;3.42;1.50;;;;;;;;;;5007226;28;20459;-60
2021/06/21 06:22:19;;;;;;;4.43;1.45;;;;;;;;;;5009175;28;20532;-61
2021/06/21 06:24:45;;;;;;;4.97;1.20;;;;;;;;;;5006524;28;20022;-61
2021/06/21 06:27:11;;;;;;;2.65;1.10;;;;;;;;;;5005601;28;20069;-61
2021/06/21 06:29:36;;;;;;;4.70;1.00;;;;;;;;;;5004203;28;20105;-61
2021/06/21 06:32:02;;;;;;;6.07;1.70;;;;;;;;;;5003226;28;20104;-62
2021/06/21 06:34:28;;;;;;;6.13;1.30;;;;;;;;;;4999753;28;20555;-61
2021/06/21 06:36:53;;;;;;;5.38;1.13;;;;;;;;;;5003535;28;20029;-62
2021/06/21 06:39:20;;;;;;;3.45;1.02;;;;;;;;;;4999872;28;20679;-61
2021/06/21 06:41:46;;;;;;;3.28;1.23;;;;;;;;;;5002574;28;20080;-61
2021/06/21 06:44:12;;;;;;;4.80;1.25;;;;;;;;;;5001791;28;20451;-61
2021/06/21 06:46:37;;;;;;;4.20;1.30;;;;;;;;;;5000139;28;20500;-62
2021/06/21 06:49:03;;;;;;;1.85;1.13;;;;;;;;;;4997433;28;20053;-61
2021/06/21 06:51:34;;;;;;;5.22;1.27;;;;;;;;;;5000226;28;20040;-61
2021/06/21 06:54:05;;;;;;;4.28;1.23;;;;;;;;;;5002595;28;20877;-61
2021/06/21 06:59:16;;;;;;;2.92;1.30;;;;;;;;;;5001615;28;20104;-61
2021/06/21 07:01:42;;;;;;;2.05;1.13;;;;;;;;;;5001589;28;20551;-61
2021/06/21 07:04:07;;;;;;;2.95;1.10;;;;;;;;;;5002735;28;20034;-61
2021/06/21 07:06:32;;;;;;;4.97;1.20;;;;;;;;;;5000345;28;20052;-59
2021/06/21 07:08:58;;;;;;;4.32;1.00;;;;;;;;;;5008096;28;20460;-62
2021/06/21 07:11:23;;;;;;;4.40;1.00;;;;;;;;;;5001038;28;20415;-61
2021/06/21 07:13:48;;;;;;;4.35;1.23;;;;;;;;;;4997579;28;20042;-61
2021/06/21 07:16:14;;;;;;;2.83;1.10;;;;;;;;;;4997227;28;20108;-62
2021/06/21 07:18:40;;;;;;;3.67;1.00;;;;;;;;;;5005431;28;20523;-62
2021/06/21 07:21:05;;;;;;;2.33;1.70;;;;;;;;;;5000598;28;20030;-62
2021/06/21 07:23:31;;;;;;;2.58;1.00;;;;;;;;;;5002806;28;20524;-61
2021/06/21 07:25:57;;;;;;;6.90;1.20;;;;;;;;;;4988171;28;20034;-61
2021/06/21 07:28:23;;;;;;;5.00;1.10;;;;;;;;;;5004619;28;20029;-62
2021/06/21 07:30:49;;;;;;;5.65;1.20;;;;;;;;;;5004785;28;20109;-62
2021/06/21 07:33:14;;;;;;;3.70;1.05;;;;;;;;;;5002347;28;20045;-63
2021/06/21 07:35:40;;;;;;;2.92;1.20;;;;;;;;;;5008853;28;20029;-62
2021/06/21 07:38:07;;;;;;;6.72;1.25;;;;;;;;;;5004724;28;20030;-61
2021/06/21 07:40:33;;;;;;;3.25;1.13;;;;;;;;;;5002801;28;20061;-62
2021/06/21 07:42:59;;;;;;;4.50;1.60;;;;;;;;;;5004796;28;20056;-64
2021/06/21 07:45:24;;;;;;;1.95;1.13;;;;;;;;;;5003748;28;20536;-61
2021/06/21 07:47:52;;;;;;;2.63;1.27;;;;;;;;;;4998921;28;20030;-62
2021/06/21 07:50:17;;;;;;;4.70;1.10;;;;;;;;;;5002479;28;20060;-62
2021/06/21 07:52:43;;;;;;;3.08;0.80;;;;;;;;;;5000778;28;20484;-61
2021/06/21 07:55:08;;;;;;;1.88;0.93;;;;;;;;;;5008265;28;20087;-62
2021/06/21 07:57:34;;;;;;;4.55;0.90;;;;;;;;;;5003685;28;20376;-62
2021/06/21 07:59:59;;;;;;;4.35;1.55;;;;;;;;;;4998560;28;20044;-61
2021/06/21 08:02:24;;;;;;;4.03;1.27;;;;;;;;;;4998573;28;20034;-62
2021/06/21 08:04:50;;;;;;;2.40;0.90;;;;;;;;;;5020624;28;20041;-62
2021/06/21 08:07:16;;;;;;;2.42;1.00;;;;;;;;;;5001990;28;20026;-62
2021/06/21 08:09:42;;;;;;;3.10;1.02;;;;;;;;;;4998791;28;20404;-60
2021/06/21 08:12:08;;;;;;;1.67;0.88;;;;;;;;;;5004071;28;20049;-62
2021/06/21 08:14:33;;;;;;;2.78;1.38;;;;;;;;;;4998712;28;20101;-62
2021/06/21 08:16:59;;;;;;;2.42;1.17;;;;;;;;;;5000943;28;20033;-61
2021/06/21 08:19:24;;;;;;;3.38;1.52;;;;;;;;;;5002780;28;20034;-62
2021/06/21 08:21:49;;;;;;;3.20;1.40;;;;;;;;;;4996420;28;20028;-61
2021/06/21 08:24:15;;;;;;;2.83;1.00;;;;;;;;;;4997513;28;20071;-62
2021/06/21 08:26:41;;;;;;;2.28;1.08;;;;;;;;;;5005795;28;20036;-63
2021/06/21 08:29:06;;;;;;;1.40;1.13;;;;;;;;;;5004538;28;20022;-63
2021/06/21 08:31:32;;;;;;;4.63;1.40;;;;;;;;;;4993062;28;20025;-61
2021/06/21 08:33:58;;;;;;;2.88;1.40;;;;;;;;;;4999615;28;20380;-62
2021/06/21 08:36:23;;;;;;;3.03;1.10;;;;;;;;;;5004886;28;20037;-63
2021/06/21 08:38:49;;;;;;;2.33;1.52;;;;;;;;;;5004027;28;20052;-62
2021/06/21 08:41:14;;;;;;;4.32;1.00;;;;;;;;;;4997873;28;20026;-62
2021/06/21 08:43:40;;;;;;;2.95;1.30;;;;;;;;;;4999606;28;20420;-62
2021/06/21 08:46:06;;;;;;;2.90;1.20;;;;;;;;;;4997048;28;20069;-63
2021/06/21 08:48:32;;;;;;;1.88;0.90;;;;;;;;;;5000662;28;20053;-62
2021/06/21 08:51:02;;;;;;;2.05;1.20;;;;;;;;;;4992378;28;20025;-62
2021/06/21 08:53:27;;;;;;;4.07;1.35;;;;;;;;;;5004293;28;20073;-62
2021/06/21 08:55:53;;;;;;;3.65;1.00;;;;;;;;;;4997539;28;20107;-62
2021/06/21 08:58:19;;;;;;;2.97;1.10;;;;;;;;;;4999555;28;20700;-63
2021/06/21 09:00:44;;;;;;;3.58;1.25;;;;;;;;;;5000118;28;20034;-63
2021/06/21 09:03:10;;;;;;;2.70;1.30;;;;;;;;;;5001735;28;20042;-63
2021/06/21 09:05:35;;;;;;;1.58;1.00;;;;;;;;;;4998165;28;20097;-62
2021/06/21 09:08:04;;;;;;;2.63;1.45;;;;;;;;;;5000681;28;20752;-62
2021/06/21 09:10:32;;;;;;;2.83;1.20;;;;;;;;;;5002265;28;20117;-62
2021/06/21 09:13:06;;;;;;;2.67;1.50;;;;;;;;;;4998016;28;20088;-62
2021/06/21 09:15:34;;;;;;;2.13;1.30;;;;;;;;;;4998669;28;20026;-63
2021/06/21 09:18:00;;;;;;;3.58;1.38;;;;;;;;;;5002754;28;20030;-62
2021/06/21 09:20:26;;;;;;;4.00;1.20;;;;;;;;;;4996318;28;20368;-62
2021/06/21 09:22:56;;;;;;;3.72;1.55;;;;;;;;;;4995561;28;20038;-63
2021/06/21 09:25:24;;;;;;;2.38;1.20;;;;;;;;;;5000595;28;20037;-63
2021/06/21 09:27:54;;;;;;;2.30;1.40;;;;;;;;;;4997294;28;20522;-61
2021/06/21 09:30:20;;;;;;;2.38;1.40;;;;;;;;;;5003410;28;20041;-62
2021/06/21 09:32:51;;;;;;;3.78;1.30;;;;;;;;;;4997648;28;20026;-62
2021/06/21 09:35:25;;;;;;;4.20;1.10;;;;;;;;;;4994876;28;20133;-61
2021/06/21 09:37:51;;;;;;;3.63;1.10;;;;;;;;;;5009751;28;20069;-62
2021/06/21 09:40:25;;;;;;;3.28;1.10;;;;;;;;;;5000523;28;20053;-61
2021/06/21 09:42:51;;;;;;;4.05;1.20;;;;;;;;;;4992555;28;20109;-62
2021/06/21 09:45:18;;;;;;;2.47;1.20;;;;;;;;;;5002692;28;20153;-60
2021/06/21 09:47:43;;;;;;;4.28;1.27;;;;;;;;;;4999768;28;20086;-61
2021/06/21 09:50:15;;;;;;;3.70;1.23;;;;;;;;;;4996624;28;20236;-61
2021/06/21 09:52:43;;;;;;;4.63;1.20;;;;;;;;;;4997513;28;20076;-62
2021/06/21 09:55:25;;;;;;;4.25;1.20;;;;;;;;;;5002392;28;20029;-61
2021/06/21 09:58:03;;;;;;;2.72;1.17;;;;;;;;;;4999113;28;20137;-61
2021/06/21 10:00:29;;;;;;;3.10;1.00;;;;;;;;;;5002044;28;20034;-63
2021/06/21 10:03:14;;;;;;;4.38;1.20;;;;;;;;;;4998970;28;20222;-63
2021/06/21 10:05:43;;;;;;;2.25;1.10;;;;;;;;;;4995450;28;20033;-61
2021/06/21 10:08:12;;;;;;;1.30;1.10;;;;;;;;;;4993800;28;20097;-61
2021/06/21 10:10:39;;;;;;;2.03;1.13;;;;;;;;;;4999455;28;20401;-61
2021/06/21 10:13:05;;;;;;;2.70;0.90;;;;;;;;;;4993197;28;20117;-62
2021/06/21 10:15:31;;;;;;;4.88;1.10;;;;;;;;;;5001031;28;20022;-61
2021/06/21 10:17:57;;;;;;;2.72;1.00;;;;;;;;;;4997642;28;20037;-62
2021/06/21 10:20:22;;;;;;;1.55;1.00;;;;;;;;;;4996173;28;20404;-63
2021/06/21 10:22:48;;;;;;;5.57;1.10;;;;;;;;;;4996773;28;20038;-63
2021/06/21 10:25:14;;;;;;;1.75;0.93;;;;;;;;;;5004297;28;20040;-62
2021/06/21 10:27:43;;;;;;;2.15;1.00;;;;;;;;;;5005237;28;20396;-62
2021/06/21 10:30:14;;;;;;;2.88;1.20;;;;;;;;;;5001125;28;20198;-62
2021/06/21 10:32:41;;;;;;;2.58;1.30;;;;;;;;;;5007392;28;20029;-62
2021/06/21 10:35:09;;;;;;;2.22;1.00;;;;;;;;;;5002709;28;20037;-62
2021/06/21 10:37:36;;;;;;;2.60;1.00;;;;;;;;;;4999753;28;20075;-61
2021/06/21 10:40:07;;;;;;;2.13;0.90;;;;;;;;;;5004167;28;20030;-61
2021/06/21 10:42:37;;;;;;;2.10;0.90;;;;;;;;;;5006612;28;20038;-62
2021/06/21 10:45:10;;;;;;;4.20;0.90;;;;;;;;;;5001093;28;20385;-61
2021/06/21 10:47:43;;;;;;;2.10;1.10;;;;;;;;;;5001041;28;20030;-62
2021/06/21 10:50:19;;;;;;;2.92;1.08;;;;;;;;;;5001077;28;20049;-62
2021/06/21 10:52:53;;;;;;;1.35;1.10;;;;;;;;;;5005665;28;20037;-62
2021/06/21 10:55:21;;;;;;;3.15;1.10;;;;;;;;;;4999549;28;20026;-62
2021/06/21 10:58:02;;;;;;;4.43;1.35;;;;;;;;;;5004039;28;20674;-62
2021/06/21 11:00:38;;;;;;;2.00;1.13;;;;;;;;;;5000291;28;20037;-61
2021/06/21 11:03:23;;;;;;;3.38;1.02;;;;;;;;;;4997550;28;20038;-64
2021/06/21 11:05:50;;;;;;;4.03;1.30;;;;;;;;;;5008359;28;20582;-61
2021/06/21 11:08:21;;;;;;;1.88;1.05;;;;;;;;;;5005366;28;20034;-62
2021/06/21 11:10:55;;;;;;;2.60;0.90;;;;;;;;;;5004710;28;20037;-62
2021/06/21 11:13:32;;;;;;;2.58;0.93;;;;;;;;;;5004951;28;20137;-62
2021/06/21 11:16:19;;;;;;;2.25;0.88;;;;;;;;;;5004431;28;20393;-62
2021/06/21 11:19:23;;;;;;;2.20;0.80;;;;;;;;;;5002660;28;20026;-62
2021/06/21 11:21:56;;;;;;;2.47;0.90;;;;;;;;;;4996959;28;20072;-62
2021/06/21 11:24:42;;;;;;;2.20;0.85;;;;;;;;;;5002897;28;20685;-62
2021/06/21 11:27:13;;;;;;;2.38;0.85;;;;;;;;;;5006398;28;20057;-61
2021/06/21 11:29:54;;;;;;;2.83;1.08;;;;;;;;;;4998360;28;20034;-61
2021/06/21 11:32:20;;;;;;;2.05;1.00;;;;;;;;;;5000625;28;20469;-61
2021/06/21 11:35:01;;;;;;;4.65;1.35;;;;;;;;;;5003794;28;20125;-62
2021/06/21 11:37:40;;;;;;;1.15;0.70;;;;;;;;;;4998393;28;20033;-62
2021/06/21 11:40:12;;;;;;;2.05;1.00;;;;;;;;;;4997772;28;20054;-62
2021/06/21 11:42:39;;;;;;;2.50;1.00;;;;;;;;;;5002371;28;20407;-63
2021/06/21 11:45:06;;;;;;;2.65;1.20;;;;;;;;;;4996803;28;20041;-62
2021/06/21 11:47:32;;;;;;;1.35;0.77;;;;;;;;;;5001641;28;20496;-62
2021/06/21 11:50:16;;;;;;;1.90;0.85;;;;;;;;;;4998874;28;20030;-62
2021/06/21 11:52:42;;;;;;;1.27;0.80;;;;;;;;;;4999386;28;20025;-61
2021/06/21 11:55:15;;;;;;;1.98;0.95;;;;;;;;;;5001645;28;20045;-62
2021/06/21 11:57:46;;;;;;;3.83;0.88;;;;;;;;;;5003165;28;20029;-61
2021/06/21 12:00:14;;;;;;;1.05;0.80;;;;;;;;;;5002647;28;20021;-61
2021/06/21 12:02:40;;;;;;;3.58;1.00;;;;;;;;;;4996235;28;20058;-62
2021/06/21 12:05:13;;;;;;;3.05;1.10;;;;;;;;;;5000326;28;20135;-61
2021/06/21 12:07:41;;;;;;;4.57;0.75;;;;;;;;;;5002290;28;20515;-61
2021/06/21 12:10:09;;;;;;;3.08;1.00;;;;;;;;;;5005295;28;20511;-61
2021/06/21 12:12:36;;;;;;;3.75;0.98;;;;;;;;;;5001292;28;20430;-58
2021/06/21 12:15:05;;;;;;;2.60;1.00;;;;;;;;;;5000819;28;20033;-59
2021/06/21 12:17:31;;;;;;;2.67;0.70;;;;;;;;;;5000698;28;20034;-59
2021/06/21 12:20:08;;;;;;;4.50;1.00;;;;;;;;;;4996866;28;20030;-59
2021/06/21 12:22:35;;;;;;;4.00;0.90;;;;;;;;;;5001343;28;21149;-60
2021/06/21 12:25:01;;;;;;;2.67;0.88;;;;;;;;;;5003236;28;20037;-63
2021/06/21 12:27:27;;;;;;;1.55;0.80;;;;;;;;;;4997030;28;20083;-61
2021/06/21 12:29:52;;;;;;;5.25;0.70;;;;;;;;;;4997503;28;20022;-58
2021/06/21 12:32:18;;;;;;;5.15;1.20;;;;;;;;;;4999938;28;20416;-58
2021/06/21 12:34:50;;;;;;;4.65;1.10;;;;;;;;;;5003884;28;20159;-58
2021/06/21 12:37:51;;;;;;;2.17;0.80;;;;;;;;;;4991289;28;20037;-60
2021/06/21 12:40:21;;;;;;;2.60;0.80;;;;;;;;;;4982797;28;20066;-61
2021/06/21 12:42:47;;;;;;;2.58;0.80;;;;;;;;;;5000536;28;20076;-61
2021/06/21 12:45:17;;;;;;;1.90;0.73;;;;;;;;;;4999086;28;20057;-61
2021/06/21 12:47:46;;;;;;;3.35;1.05;;;;;;;;;;4997828;28;20441;-61
2021/06/21 12:50:14;;;;;;;2.38;0.90;;;;;;;;;;4995365;28;20033;-61
2021/06/21 12:52:50;;;;;;;3.38;0.77;;;;;;;;;;4995916;28;20049;-60
2021/06/21 12:55:36;;;;;;;1.75;0.85;;;;;;;;;;5003738;28;20037;-61
2021/06/21 12:58:07;;;;;;;1.90;0.88;;;;;;;;;;5000896;28;20054;-60
2021/06/21 13:00:44;;;;;;;2.75;0.63;;;;;;;;;;4996762;28;20031;-60
2021/06/21 13:03:15;;;;;;;2.17;0.70;;;;;;;;;;4996113;28;20036;-61
2021/06/21 13:05:46;;;;;;;2.88;0.80;;;;;;;;;;5002751;28;20523;-61
2021/06/21 13:08:13;;;;;;;0.63;0.50;;;;;;;;;;4998015;28;20060;-61
2021/06/21 13:10:39;;;;;;;3.15;0.80;;;;;;;;;;4995648;28;20189;-61
2021/06/21 13:13:05;;;;;;;3.67;0.70;;;;;;;;;;5012502;28;20396;-61
2021/06/21 13:15:45;;;;;;;1.42;0.70;;;;;;;;;;4992321;28;20049;-60
2021/06/21 13:18:13;;;;;;;0.60;0.50;;;;;;;;;;5000930;28;20037;-61
2021/06/21 13:20:51;;;;;;;4.82;0.98;;;;;;;;;;4997537;28;20027;-60
2021/06/21 13:23:18;;;;;;;2.15;0.60;;;;;;;;;;4998619;28;20492;-59
2021/06/21 13:25:46;;;;;;;0.65;0.50;;;;;;;;;;4998816;28;20053;-58
2021/06/21 13:28:13;;;;;;;;;;;;;;;;;;4996978;28;20026;-58
2021/06/21 13:30:47;;;;;;;1.90;0.77;;;;;;;;;;5003122;28;20384;-58
2021/06/21 13:33:13;;;;;;;2.80;0.90;;;;;;;;;;4999885;28;20033;-59
2021/06/21 13:35:44;;;;;;;2.08;0.60;;;;;;;;;;4998292;28;20030;-58
2021/06/21 13:38:15;;;;;;;3.25;0.90;;;;;;;;;;4997031;28;20061;-59
2021/06/21 13:40:41;;;;;;;1.73;0.60;;;;;;;;;;4997407;28;20052;-59
2021/06/21 13:43:09;;;;;;;1.52;0.50;;;;;;;;;;4995568;28;20370;-59
2021/06/21 13:45:41;;;;;;;2.13;0.63;;;;;;;;;;5002823;28;20109;-59
2021/06/21 13:48:12;;;;;;;1.40;0.55;;;;;;;;;;4996793;28;20030;-61
2021/06/21 13:50:41;;;;;;;1.75;0.60;;;;;;;;;;4998945;28;20037;-63
2021/06/21 13:53:22;;;;;;;2.50;0.63;;;;;;;;;;4995698;28;20113;-62
2021/06/21 13:55:49;;;;;;;1.95;0.88;;;;;;;;;;4997699;28;20118;-60
2021/06/21 13:58:15;;;;;;;3.17;0.73;;;;;;;;;;4994364;28;20033;-61
2021/06/21 14:00:44;;;;;;;1.15;0.70;;;;;;;;;;5002307;28;20021;-60
2021/06/21 14:03:31;;;;;;;1.27;0.80;;;;;;;;;;4995917;28;20026;-61
2021/06/21 14:05:59;;;;;;;1.45;0.63;;;;;;;;;;5000308;28;20041;-61
2021/06/21 14:08:26;;;;;;;1.10;0.60;;;;;;;;;;4998924;28;20026;-61
2021/06/21 14:10:54;;;;;;;2.90;0.50;;;;;;;;;;5000214;28;20040;-60
2021/06/21 14:13:19;;;;;;;2.10;0.53;;;;;;;;;;5000207;28;20030;-61
2021/06/21 14:15:45;;;;;;;4.05;0.80;;;;;;;;;;5004800;28;20323;-62
2021/06/21 14:18:11;;;;;;;2.40;1.00;;;;;;;;;;5001480;28;20359;-62
2021/06/21 14:20:38;;;;;;;1.98;0.68;;;;;;;;;;5001537;28;20034;-60
2021/06/21 14:23:04;;;;;;;2.83;0.80;;;;;;;;;;5003882;28;20026;-61
2021/06/21 14:25:30;;;;;;;2.25;0.75;;;;;;;;;;5006485;28;20156;-61
2021/06/21 14:27:55;;;;;;;1.70;0.60;;;;;;;;;;5001113;28;20112;-61
2021/06/21 14:30:21;;;;;;;2.28;0.73;;;;;;;;;;5001955;28;20439;-61
2021/06/21 14:32:46;;;;;;;1.75;0.70;;;;;;;;;;5021320;28;20863;-61
2021/06/21 14:35:12;;;;;;;2.75;0.70;;;;;;;;;;5003382;28;20034;-61
2021/06/21 14:37:38;;;;;;;1.88;0.90;;;;;;;;;;5002991;28;20063;-61
2021/06/21 14:40:07;;;;;;;1.88;0.70;;;;;;;;;;5001451;28;20018;-61
2021/06/21 14:42:36;;;;;;;1.05;0.70;;;;;;;;;;4998676;28;20085;-60
2021/06/21 14:45:04;;;;;;;2.85;0.90;;;;;;;;;;5005288;28;20030;-61
2021/06/21 14:47:30;;;;;;;1.05;0.70;;;;;;;;;;5003020;28;20049;-61
2021/06/21 14:52:34;;;;;;;1.20;0.80;;;;;;;;;;4998385;28;20049;-60
2021/06/21 14:55:04;;;;;;;2.60;0.98;;;;;;;;;;5002651;28;20243;-62